Airport View

Enter AWOS ICAO identifier for current METAR.

KFNL for example

22 Sep 2017 11:43

Frequency: 135.325

Phone: 731-885-9161

Other Area AWOS: KPHT - KM25 - KDYR - KHZD

TAF AMD KPAH 220905Z 2209/2306 00000KT 3SM BR SCT003 TEMPO 2209/2212 1/2SM FG VV003 FM221400 10005KT P6SM FEW035